Time,TemperatureF,DewpointF,PressureIn,WindDirection,WindDirectionDegrees,WindSpeedMPH,WindSpeedGustMPH,Humidity,HourlyPrecipIn,Conditions,Clouds,dailyrainin,SoftwareType,DateUTC
2013-02-02 00:02:00,34.0,28.0,30.04,West,265,19.0,-999.0,78,-99.99,,,-99.99,,2013-02-02 07:02:00,
2013-02-02 00:12:00,34.0,27.0,30.04,West,264,23.0,-999.0,74,-99.99,,,-99.99,,2013-02-02 07:12:00,
2013-02-02 00:21:00,34.0,27.0,30.04,West,280,20.0,-999.0,75,-99.99,,,-99.99,,2013-02-02 07:21:00,
2013-02-02 00:31:00,35.0,27.0,30.04,WNW,289,19.0,-999.0,72,-99.99,,,-99.99,,2013-02-02 07:31:00,
2013-02-02 00:42:00,34.0,27.0,30.05,WNW,290,20.0,-999.0,74,-99.99,,,-99.99,,2013-02-02 07:42:00,
2013-02-02 00:51:00,33.0,30.0,30.07,WNW,297,27.0,-999.0,88,-99.99,,,-99.99,,2013-02-02 07:51:00,
2013-02-02 01:01:00,33.0,30.0,30.05,WNW,285,25.0,-999.0,89,-99.99,,,-99.99,,2013-02-02 08:01:00,
2013-02-02 01:11:00,32.0,29.0,30.06,WNW,290,23.0,-999.0,90,-99.99,,,-99.99,,2013-02-02 08:11:00,
2013-02-02 01:21:00,32.0,30.0,30.04,WNW,295,18.0,-999.0,90,-99.99,,,-99.99,,2013-02-02 08:21:00,
2013-02-02 01:31:00,33.0,30.0,30.06,WNW,289,17.0,-999.0,89,-99.99,,,-99.99,,2013-02-02 08:31:00,
2013-02-02 01:41:00,33.0,30.0,30.06,WNW,289,17.0,-999.0,89,-99.99,,,-99.99,,2013-02-02 08:41:00,
2013-02-02 01:52:00,32.0,29.0,30.06,WNW,290,14.0,-999.0,90,-99.99,,,-99.99,,2013-02-02 08:52:00,
2013-02-02 02:01:00,32.0,29.0,30.06,WNW,282,13.0,-999.0,91,-99.99,,,-99.99,,2013-02-02 09:01:00,
2013-02-02 02:11:00,31.0,29.0,30.06,West,278,11.0,-999.0,92,-99.99,,,-99.99,,2013-02-02 09:11:00,
2013-02-02 02:22:00,32.0,29.0,30.07,WNW,284,13.0,-999.0,91,-99.99,,,-99.99,,2013-02-02 09:22:00,
2013-02-02 02:31:00,32.0,29.0,30.05,WNW,286,13.0,-999.0,90,-99.99,,,-99.99,,2013-02-02 09:31:00,
2013-02-02 02:42:00,32.0,29.0,30.06,West,281,12.0,-999.0,90,-99.99,,,-99.99,,2013-02-02 09:42:00,
2013-02-02 02:52:00,31.0,29.0,30.06,West,279,10.0,-999.0,90,-99.99,,,-99.99,,2013-02-02 09:52:00,
2013-02-02 03:01:00,32.0,29.0,30.08,WNW,282,10.0,-999.0,90,-99.99,,,-99.99,,2013-02-02 10:01:00,
2013-02-02 03:11:00,32.0,29.0,30.08,West,274,11.0,-999.0,89,-99.99,,,-99.99,,2013-02-02 10:11:00,
2013-02-02 03:21:00,32.0,29.0,30.07,West,270,10.0,-999.0,88,-99.99,,,-99.99,,2013-02-02 10:21:00,
2013-02-02 03:32:00,32.0,29.0,30.09,West,260,11.0,-999.0,88,-99.99,,,-99.99,,2013-02-02 10:32:00,
2013-02-02 03:42:00,32.0,28.0,30.05,West,269,11.0,-999.0,86,-99.99,,,-99.99,,2013-02-02 10:42:00,
2013-02-02 03:52:00,31.0,28.0,30.06,West,267,13.0,-999.0,86,-99.99,,,-99.99,,2013-02-02 10:52:00,
2013-02-02 04:01:00,31.0,27.0,30.07,West,260,12.0,-999.0,86,-99.99,,,-99.99,,2013-02-02 11:01:00,
2013-02-02 04:11:00,30.0,27.0,30.07,WSW,254,12.0,-999.0,87,-99.99,,,-99.99,,2013-02-02 11:11:00,
2013-02-02 04:21:00,31.0,27.0,30.05,WSW,251,14.0,-999.0,85,-99.99,,,-99.99,,2013-02-02 11:21:00,
2013-02-02 04:32:00,31.0,26.0,30.05,WSW,251,15.0,-999.0,83,-99.99,,,-99.99,,2013-02-02 11:32:00,
2013-02-02 04:42:00,30.0,26.0,30.06,WSW,249,17.0,-999.0,83,-99.99,,,-99.99,,2013-02-02 11:42:00,
2013-02-02 04:52:00,30.0,25.0,30.06,WSW,241,18.0,-999.0,82,-99.99,,,-99.99,,2013-02-02 11:52:00,
2013-02-02 05:02:00,31.0,25.0,30.05,WSW,244,17.0,-999.0,81,-99.99,,,-99.99,,2013-02-02 12:02:00,
2013-02-02 05:11:00,30.0,24.0,30.07,WSW,258,16.0,-999.0,79,-99.99,,,-99.99,,2013-02-02 12:11:00,
2013-02-02 05:22:00,29.0,24.0,30.07,WSW,251,17.0,-999.0,81,-99.99,,,-99.99,,2013-02-02 12:22:00,
2013-02-02 05:32:00,28.0,24.0,30.06,WSW,247,17.0,-999.0,82,-99.99,,,-99.99,,2013-02-02 12:32:00,
2013-02-02 05:42:00,28.0,23.0,30.06,WSW,240,13.0,-999.0,82,-99.99,,,-99.99,,2013-02-02 12:42:00,
2013-02-02 05:52:00,28.0,23.0,30.07,WSW,248,17.0,-999.0,82,-99.99,,,-99.99,,2013-02-02 12:52:00,
2013-02-02 06:03:00,28.0,23.0,30.06,WSW,250,18.0,-999.0,82,-99.99,,,-99.99,,2013-02-02 13:03:00,
2013-02-02 06:11:00,28.0,23.0,30.07,WSW,245,17.0,-999.0,83,-99.99,,,-99.99,,2013-02-02 13:11:00,
2013-02-02 06:21:00,27.0,23.0,30.06,WSW,249,15.0,-999.0,83,-99.99,,,-99.99,,2013-02-02 13:21:00,
2013-02-02 06:32:00,27.0,22.0,30.06,WSW,249,19.0,-999.0,82,-99.99,,,-99.99,,2013-02-02 13:32:00,
2013-02-02 06:42:00,27.0,22.0,30.06,WSW,249,19.0,-999.0,82,-99.99,,,-99.99,,2013-02-02 13:42:00,
2013-02-02 06:52:00,27.0,23.0,30.05,WSW,247,19.0,-999.0,82,-99.99,,,-99.99,,2013-02-02 13:52:00,
2013-02-02 07:02:00,28.0,23.0,30.05,WSW,244,19.0,-999.0,80,-99.99,,,-99.99,,2013-02-02 14:02:00,
2013-02-02 07:11:00,28.0,22.0,30.06,WSW,249,15.0,-999.0,78,-99.99,,,-99.99,,2013-02-02 14:11:00,
2013-02-02 07:22:00,29.0,22.0,30.06,WSW,255,14.0,-999.0,75,-99.99,,,-99.99,,2013-02-02 14:22:00,
2013-02-02 07:32:00,28.0,22.0,30.06,WSW,254,15.0,-999.0,76,-99.99,,,-99.99,,2013-02-02 14:32:00,
2013-02-02 07:42:00,28.0,22.0,30.05,WSW,249,17.0,-999.0,77,-99.99,,,-99.99,,2013-02-02 14:42:00,
2013-02-02 07:52:00,28.0,22.0,30.08,WSW,247,16.0,-999.0,78,-99.99,,,-99.99,,2013-02-02 14:52:00,
2013-02-02 08:03:00,29.0,22.0,30.06,WSW,247,15.0,-999.0,76,-99.99,,,-99.99,,2013-02-02 15:03:00,
2013-02-02 08:12:00,29.0,22.0,30.07,WSW,252,15.0,-999.0,77,-99.99,,,-99.99,,2013-02-02 15:12:00,
2013-02-02 08:22:00,30.0,22.0,30.06,West,262,16.0,-999.0,72,-99.99,,,-99.99,,2013-02-02 15:22:00,
2013-02-02 08:32:00,32.0,23.0,30.07,West,262,17.0,-999.0,69,-99.99,,,-99.99,,2013-02-02 15:32:00,
2013-02-02 08:42:00,32.0,23.0,30.06,WSW,258,16.0,-999.0,67,-99.99,,,-99.99,,2013-02-02 15:42:00,
2013-02-02 08:52:00,32.0,23.0,30.08,WSW,247,12.0,-999.0,69,-99.99,,,-99.99,,2013-02-02 15:52:00,
2013-02-02 09:03:00,31.0,23.0,30.09,WSW,243,15.0,-999.0,70,-99.99,,,-99.99,,2013-02-02 16:03:00,
2013-02-02 09:11:00,31.0,22.0,30.06,WSW,245,19.0,-999.0,69,-99.99,,,-99.99,,2013-02-02 16:11:00,
2013-02-02 09:22:00,32.0,23.0,30.06,WSW,250,14.0,-999.0,69,-99.99,,,-99.99,,2013-02-02 16:22:00,
2013-02-02 09:32:00,32.0,23.0,30.06,WSW,243,18.0,-999.0,68,-99.99,,,-99.99,,2013-02-02 16:32:00,
2013-02-02 09:42:00,32.0,23.0,30.06,WSW,248,17.0,-999.0,68,-99.99,,,-99.99,,2013-02-02 16:42:00,
2013-02-02 09:52:00,34.0,23.0,30.08,WSW,252,21.0,-999.0,65,-99.99,,,-99.99,,2013-02-02 16:52:00,
2013-02-02 10:02:00,34.0,23.0,30.08,WSW,252,21.0,-999.0,65,-99.99,,,-99.99,,2013-02-02 17:02:00,
2013-02-02 10:11:00,34.0,24.0,30.08,WSW,253,20.0,-999.0,67,-99.99,,,-99.99,,2013-02-02 17:11:00,
2013-02-02 10:22:00,35.0,24.0,30.07,WSW,252,24.0,-999.0,64,-99.99,,,-99.99,,2013-02-02 17:22:00,
2013-02-02 10:32:00,35.0,23.0,30.05,WSW,252,27.0,-999.0,62,-99.99,,,-99.99,,2013-02-02 17:32:00,
2013-02-02 10:42:00,35.0,24.0,30.06,WSW,253,26.0,-999.0,63,-99.99,,,-99.99,,2013-02-02 17:42:00,
2013-02-02 10:52:00,36.0,25.0,30.08,West,260,19.0,-999.0,64,-99.99,,,-99.99,,2013-02-02 17:52:00,
2013-02-02 11:02:00,36.0,25.0,30.08,West,260,19.0,-999.0,64,-99.99,,,-99.99,,2013-02-02 18:02:00,
2013-02-02 11:12:00,37.0,26.0,30.09,WSW,258,20.0,-999.0,64,-99.99,,,-99.99,,2013-02-02 18:12:00,
2013-02-02 11:22:00,38.0,25.0,30.08,West,263,22.0,-999.0,58,-99.99,,,-99.99,,2013-02-02 18:22:00,
2013-02-02 11:32:00,38.0,24.0,30.08,WSW,254,22.0,-999.0,57,-99.99,,,-99.99,,2013-02-02 18:32:00,
2013-02-02 11:42:00,38.0,25.0,30.08,West,272,19.0,-999.0,59,-99.99,,,-99.99,,2013-02-02 18:42:00,
2013-02-02 11:52:00,38.0,25.0,30.07,West,274,25.0,-999.0,58,-99.99,,,-99.99,,2013-02-02 18:52:00,
2013-02-02 12:02:00,39.0,25.0,30.09,West,274,21.0,-999.0,57,-99.99,,,-99.99,,2013-02-02 19:02:00,
2013-02-02 12:12:00,40.0,26.0,30.08,WNW,286,24.0,-999.0,58,-99.99,,,-99.99,,2013-02-02 19:12:00,
2013-02-02 12:21:00,39.0,23.0,30.09,WNW,294,27.0,-999.0,51,-99.99,,,-99.99,,2013-02-02 19:21:00,
2013-02-02 12:32:00,39.0,22.0,30.07,WNW,299,25.0,-999.0,50,-99.99,,,-99.99,,2013-02-02 19:32:00,
2013-02-02 12:42:00,40.0,22.0,30.08,WNW,295,29.0,-999.0,48,-99.99,,,-99.99,,2013-02-02 19:42:00,
2013-02-02 12:51:00,39.0,23.0,30.08,WNW,296,28.0,-999.0,53,-99.99,,,-99.99,,2013-02-02 19:51:00,
2013-02-02 13:01:00,39.0,22.0,30.08,WNW,301,36.0,-999.0,50,-99.99,,,-99.99,,2013-02-02 20:01:00,
2013-02-02 13:11:00,39.0,24.0,30.08,WNW,303,27.0,-999.0,54,-99.99,,,-99.99,,2013-02-02 20:11:00,
2013-02-02 13:21:00,39.0,23.0,30.08,NW,305,36.0,-999.0,51,-99.99,,,-99.99,,2013-02-02 20:21:00,
2013-02-02 13:32:00,39.0,24.0,30.07,WNW,299,35.0,-999.0,53,-99.99,,,-99.99,,2013-02-02 20:32:00,
2013-02-02 13:42:00,39.0,24.0,30.06,WNW,295,27.0,-999.0,53,-99.99,,,-99.99,,2013-02-02 20:42:00,
2013-02-02 13:52:00,39.0,22.0,30.08,NW,305,31.0,-999.0,50,-99.99,,,-99.99,,2013-02-02 20:52:00,
2013-02-02 14:02:00,39.0,24.0,30.06,WNW,302,27.0,-999.0,54,-99.99,,,-99.99,,2013-02-02 21:02:00,
2013-02-02 14:11:00,40.0,24.0,30.06,WNW,295,34.0,-999.0,53,-99.99,,,-99.99,,2013-02-02 21:11:00,
2013-02-02 14:21:00,40.0,22.0,30.08,WNW,293,38.0,-999.0,49,-99.99,,,-99.99,,2013-02-02 21:21:00,
2013-02-02 14:32:00,40.0,24.0,30.07,WNW,296,31.0,-999.0,52,-99.99,,,-99.99,,2013-02-02 21:32:00,
2013-02-02 14:42:00,40.0,24.0,30.07,WNW,296,31.0,-999.0,52,-99.99,,,-99.99,,2013-02-02 21:42:00,
2013-02-02 14:52:00,40.0,25.0,30.06,NW,305,30.0,-999.0,54,-99.99,,,-99.99,,2013-02-02 21:52:00,
2013-02-02 15:02:00,40.0,25.0,30.08,WNW,301,22.0,-999.0,54,-99.99,,,-99.99,,2013-02-02 22:02:00,
2013-02-02 15:12:00,40.0,23.0,30.08,NW,309,30.0,-999.0,51,-99.99,,,-99.99,,2013-02-02 22:12:00,
2013-02-02 15:21:00,40.0,23.0,30.10,NW,310,33.0,-999.0,50,-99.99,,,-99.99,,2013-02-02 22:21:00,
2013-02-02 15:32:00,40.0,23.0,30.08,NW,313,26.0,-999.0,50,-99.99,,,-99.99,,2013-02-02 22:32:00,
2013-02-02 15:42:00,40.0,24.0,30.10,NW,305,33.0,-999.0,53,-99.99,,,-99.99,,2013-02-02 22:42:00,
2013-02-02 15:52:00,40.0,21.0,30.11,WNW,302,35.0,-999.0,47,-99.99,,,-99.99,,2013-02-02 22:52:00,
2013-02-02 16:02:00,40.0,21.0,30.11,WNW,302,35.0,-999.0,47,-99.99,,,-99.99,,2013-02-02 23:02:00,
2013-02-02 16:11:00,39.0,21.0,30.12,NW,307,29.0,-999.0,47,-99.99,,,-99.99,,2013-02-02 23:11:00,
2013-02-02 16:21:00,39.0,22.0,30.11,NW,306,35.0,-999.0,50,-99.99,,,-99.99,,2013-02-02 23:21:00,
2013-02-02 16:32:00,39.0,23.0,30.12,NW,307,26.0,-999.0,53,-99.99,,,-99.99,,2013-02-02 23:32:00,
2013-02-02 16:42:00,38.0,21.0,30.10,NW,309,31.0,-999.0,48,-99.99,,,-99.99,,2013-02-02 23:42:00,
2013-02-02 16:52:00,38.0,20.0,30.13,NW,308,29.0,-999.0,49,-99.99,,,-99.99,,2013-02-02 23:52:00,
2013-02-02 17:02:00,37.0,19.0,30.11,NW,304,27.0,-999.0,48,-99.99,,,-99.99,,2013-02-03 00:02:00,
2013-02-02 17:11:00,36.0,21.0,30.11,NW,308,27.0,-999.0,52,-99.99,,,-99.99,,2013-02-03 00:11:00,
2013-02-02 17:22:00,36.0,21.0,30.11,WNW,300,26.0,-999.0,54,-99.99,,,-99.99,,2013-02-03 00:22:00,
2013-02-02 17:32:00,35.0,22.0,30.12,NW,304,25.0,-999.0,57,-99.99,,,-99.99,,2013-02-03 00:32:00,
2013-02-02 17:42:00,35.0,22.0,30.12,NW,308,21.0,-999.0,59,-99.99,,,-99.99,,2013-02-03 00:42:00,
2013-02-02 17:51:00,35.0,22.0,30.12,WNW,303,23.0,-999.0,59,-99.99,,,-99.99,,2013-02-03 00:51:00,
2013-02-02 18:02:00,34.0,23.0,30.14,WNW,302,21.0,-999.0,63,-99.99,,,-99.99,,2013-02-03 01:02:00,
2013-02-02 18:11:00,34.0,23.0,30.14,NW,308,19.0,-999.0,62,-99.99,,,-99.99,,2013-02-03 01:11:00,
2013-02-02 18:21:00,34.0,22.0,30.14,WNW,300,19.0,-999.0,61,-99.99,,,-99.99,,2013-02-03 01:21:00,
2013-02-02 18:32:00,34.0,23.0,30.15,WNW,299,17.0,-999.0,63,-99.99,,,-99.99,,2013-02-03 01:32:00,
2013-02-02 18:42:00,33.0,22.0,30.15,NW,311,13.0,-999.0,63,-99.99,,,-99.99,,2013-02-03 01:42:00,
2013-02-02 18:52:00,33.0,22.0,30.17,WNW,295,13.0,-999.0,65,-99.99,,,-99.99,,2013-02-03 01:52:00,
2013-02-02 19:01:00,32.0,22.0,30.17,West,279,12.0,-999.0,66,-99.99,,,-99.99,,2013-02-03 02:01:00,
2013-02-02 19:11:00,32.0,22.0,30.16,WNW,291,14.0,-999.0,65,-99.99,,,-99.99,,2013-02-03 02:11:00,
2013-02-02 19:21:00,32.0,21.0,30.18,WNW,295,12.0,-999.0,63,-99.99,,,-99.99,,2013-02-03 02:21:00,
2013-02-02 19:32:00,32.0,21.0,30.17,WNW,287,15.0,-999.0,64,-99.99,,,-99.99,,2013-02-03 02:32:00,
2013-02-02 19:42:00,31.0,21.0,30.18,WNW,283,10.0,-999.0,67,-99.99,,,-99.99,,2013-02-03 02:42:00,
2013-02-02 19:52:00,30.0,21.0,30.18,WNW,288,13.0,-999.0,68,-99.99,,,-99.99,,2013-02-03 02:52:00,
2013-02-02 20:02:00,30.0,21.0,30.18,West,281,13.0,-999.0,68,-99.99,,,-99.99,,2013-02-03 03:02:00,
2013-02-02 20:11:00,29.0,21.0,30.19,West,273,14.0,-999.0,70,-99.99,,,-99.99,,2013-02-03 03:11:00,
2013-02-02 20:21:00,29.0,21.0,30.18,West,264,13.0,-999.0,72,-99.99,,,-99.99,,2013-02-03 03:21:00,
2013-02-02 20:32:00,30.0,21.0,30.17,West,273,15.0,-999.0,68,-99.99,,,-99.99,,2013-02-03 03:32:00,
2013-02-02 20:42:00,29.0,20.0,30.16,West,273,16.0,-999.0,68,-99.99,,,-99.99,,2013-02-03 03:42:00,
2013-02-02 20:51:00,29.0,21.0,30.16,West,264,15.0,-999.0,70,-99.99,,,-99.99,,2013-02-03 03:51:00,
2013-02-02 21:01:00,29.0,21.0,30.17,West,275,15.0,-999.0,70,-99.99,,,-99.99,,2013-02-03 04:01:00,
2013-02-02 21:11:00,29.0,21.0,30.16,West,278,15.0,-999.0,69,-99.99,,,-99.99,,2013-02-03 04:11:00,
2013-02-02 21:21:00,29.0,21.0,30.17,West,280,13.0,-999.0,69,-99.99,,,-99.99,,2013-02-03 04:21:00,
2013-02-02 21:32:00,29.0,20.0,30.17,West,280,13.0,-999.0,68,-99.99,,,-99.99,,2013-02-03 04:32:00,
2013-02-02 21:42:00,29.0,20.0,30.17,West,271,12.0,-999.0,68,-99.99,,,-99.99,,2013-02-03 04:42:00,
2013-02-02 21:52:00,29.0,20.0,30.17,West,272,11.0,-999.0,66,-99.99,,,-99.99,,2013-02-03 04:52:00,
2013-02-02 22:03:00,29.0,19.0,30.16,West,276,12.0,-999.0,67,-99.99,,,-99.99,,2013-02-03 05:03:00,
2013-02-02 22:12:00,29.0,19.0,30.15,WNW,282,16.0,-999.0,66,-99.99,,,-99.99,,2013-02-03 05:12:00,
2013-02-02 22:22:00,28.0,19.0,30.16,West,279,13.0,-999.0,68,-99.99,,,-99.99,,2013-02-03 05:22:00,
2013-02-02 22:32:00,28.0,19.0,30.17,West,278,15.0,-999.0,68,-99.99,,,-99.99,,2013-02-03 05:32:00,
2013-02-02 22:42:00,29.0,18.0,30.15,WNW,285,14.0,-999.0,64,-99.99,,,-99.99,,2013-02-03 05:42:00,
2013-02-02 22:52:00,28.0,19.0,30.16,NW,307,9.0,-999.0,67,-99.99,,,-99.99,,2013-02-03 05:52:00,
2013-02-02 23:02:00,29.0,18.0,30.16,WNW,290,11.0,-999.0,62,-99.99,,,-99.99,,2013-02-03 06:02:00,
2013-02-02 23:11:00,28.0,18.0,30.15,West,269,10.0,-999.0,65,-99.99,,,-99.99,,2013-02-03 06:11:00,
2013-02-02 23:21:00,28.0,18.0,30.14,WNW,297,4.0,-999.0,65,-99.99,,,-99.99,,2013-02-03 06:21:00,
2013-02-02 23:32:00,28.0,17.0,30.15,NW,307,8.0,-999.0,61,-99.99,,,-99.99,,2013-02-03 06:32:00,
2013-02-02 23:41:00,29.0,16.0,30.16,WNW,290,9.0,-999.0,59,-99.99,,,-99.99,,2013-02-03 06:41:00,
2013-02-02 23:52:00,29.0,16.0,30.15,WNW,293,8.0,-999.0,58,-99.99,,,-99.99,,2013-02-03 06:52:00,